Time;durP1;ratioP1;P1;durP2;ratioP2;P2;SDS_P1;SDS_P2;PMS_P1;PMS_P2;Temp;Humidity;BMP_temperature;BMP_pressure;BME280_temperature;BME280_humidity;BME280_pressure;Samples;Min_cycle;Max_cycle;Signal;HPM_P1;HPM_P2
2022/01/19 00:02:57;;;;;;;292.20;17.55;;;;;;;2.14;87.07;103274.59;10499931;28;20128;-80
2022/01/19 00:07:59;;;;;;;293.35;19.08;;;;;;;2.47;85.97;103269.38;10483472;28;20056;-81
2022/01/19 00:13:01;;;;;;;211.43;19.60;;;;;;;2.13;85.88;103266.06;10492132;28;20040;-81
2022/01/19 00:18:03;;;;;;;190.27;13.48;;;;;;;2.15;85.41;103262.03;10518673;28;20094;-82
2022/01/19 00:23:06;;;;;;;247.70;15.93;;;;;;;1.86;86.27;103262.59;10475811;28;20037;-82
2022/01/19 00:28:07;;;;;;;153.93;14.25;;;;;;;2.07;85.00;103252.75;10510262;28;20159;-82
2022/01/19 00:33:10;;;;;;;200.80;15.55;;;;;;;1.84;84.96;103212.34;10514778;28;20053;-82
2022/01/19 00:38:12;;;;;;;139.77;13.60;;;;;;;1.86;85.71;103195.63;10521329;28;20080;-82
2022/01/19 00:43:15;;;;;;;83.25;12.43;;;;;;;1.92;84.67;103164.78;10489434;28;20613;-82
2022/01/19 00:48:16;;;;;;;72.68;13.70;;;;;;;1.53;86.39;103181.38;10517904;28;20043;-82
2022/01/19 00:53:18;;;;;;;173.90;15.50;;;;;;;1.34;86.84;103191.34;10504298;28;20105;-82
2022/01/19 00:58:19;;;;;;;183.20;16.25;;;;;;;1.54;86.59;103186.59;10506328;28;20486;-82
2022/01/19 01:03:21;;;;;;;75.88;13.20;;;;;;;1.71;87.08;103185.72;10515984;28;20040;-82
2022/01/19 01:08:23;;;;;;;93.15;13.38;;;;;;;1.74;86.50;103186.03;10490907;28;20460;-82
2022/01/19 01:18:31;;;;;;;73.40;13.32;;;;;;;1.81;87.10;103135.78;10492896;28;20051;-81
2022/01/19 01:23:35;;;;;;;157.52;15.10;;;;;;;1.82;87.25;103123.25;10485421;28;20040;-81
2022/01/19 01:28:37;;;;;;;54.08;14.48;;;;;;;1.96;86.54;103136.41;10478988;28;20107;-81
2022/01/19 01:33:41;;;;;;;38.35;13.73;;;;;;;1.83;87.90;103124.13;10485199;28;20037;-82
2022/01/19 01:38:44;;;;;;;32.42;13.85;;;;;;;2.00;87.50;103115.59;10479338;28;20135;-82
2022/01/19 01:43:46;;;;;;;39.78;15.05;;;;;;;1.77;87.86;103109.19;10467877;28;20068;-81
2022/01/19 01:48:49;;;;;;;31.15;12.80;;;;;;;1.97;88.38;103093.31;10485924;28;20071;-82
2022/01/19 01:53:52;;;;;;;35.67;14.40;;;;;;;1.75;89.88;103090.34;10478298;28;20055;-82
2022/01/19 01:58:54;;;;;;;35.20;13.98;;;;;;;1.79;89.87;103089.91;10473885;28;20041;-81
2022/01/19 02:04:04;;;;;;;33.53;13.63;;;;;;;2.08;88.92;103081.63;10516238;28;20048;-82
2022/01/19 02:09:14;;;;;;;38.65;15.73;;;;;;;2.45;88.46;103059.69;10496850;28;20048;-82
2022/01/19 02:25:09;;;;;;;46.20;16.00;;;;;;;2.92;88.01;103007.94;10510621;28;20663;-82
2022/01/19 02:40:50;;;;;;;54.55;19.08;;;;;;;2.50;88.46;102950.69;10531246;28;21228;-84
2022/01/19 02:51:12;;;;;;;51.42;18.48;;;;;;;2.48;86.83;102948.03;10487896;28;20495;-84
2022/01/19 02:56:23;;;;;;;41.00;16.27;;;;;;;2.47;86.01;102951.31;10517786;28;20542;-84
2022/01/19 03:11:47;;;;;;;48.30;18.08;;;;;;;1.99;88.35;102887.53;10511955;28;20040;-84
2022/01/19 03:16:48;;;;;;;48.97;18.90;;;;;;;1.96;88.29;102882.16;10485965;28;20049;-84
2022/01/19 03:21:50;;;;;;;45.00;18.08;;;;;;;1.85;87.94;102869.34;10500112;28;20040;-84
2022/01/19 03:26:52;;;;;;;50.58;17.55;;;;;;;1.64;88.15;102852.97;10527607;28;20056;-84
2022/01/19 03:31:58;;;;;;;56.25;19.88;;;;;;;1.64;88.55;102835.19;10466385;28;20079;-84
2022/01/19 03:37:00;;;;;;;60.58;19.23;;;;;;;1.75;88.56;102823.47;10491688;28;20055;-84
2022/01/19 03:42:01;;;;;;;60.75;20.02;;;;;;;1.76;88.66;102810.03;10532316;28;20041;-84
2022/01/19 03:47:04;;;;;;;56.40;21.42;;;;;;;1.79;88.63;102805.25;10492517;28;20051;-85
2022/01/19 03:52:07;;;;;;;52.40;19.83;;;;;;;1.76;88.69;102799.88;10501378;28;20074;-84
2022/01/19 03:57:12;;;;;;;58.05;20.02;;;;;;;1.77;88.66;102782.97;10483347;28;20068;-85
2022/01/19 04:02:14;;;;;;;43.88;17.60;;;;;;;1.81;88.21;102774.88;10504934;28;20094;-84
2022/01/19 04:07:15;;;;;;;49.92;18.48;;;;;;;1.93;88.06;102775.09;10505307;28;20045;-84
2022/01/19 04:12:41;;;;;;;54.65;17.58;;;;;;;1.90;87.16;102779.16;10492130;28;20441;-84
2022/01/19 04:17:50;;;;;;;41.33;15.25;;;;;;;1.95;87.73;102764.31;10477449;28;20098;-84
2022/01/19 04:22:52;;;;;;;48.40;18.80;;;;;;;2.03;87.15;102753.19;10485815;28;20056;-84
2022/01/19 04:27:54;;;;;;;46.63;16.48;;;;;;;2.02;86.94;102758.16;10488160;28;20076;-84
2022/01/19 04:49:05;;;;;;;45.63;20.02;;;;;;;2.30;86.81;102732.66;10503837;28;20040;-84
2022/01/19 05:01:39;;;;;;;51.35;22.42;;;;;;;2.53;85.90;102729.63;10490257;28;20040;-83
2022/01/19 05:15:29;;;;;;;51.75;24.20;;;;;;;2.66;86.13;102721.38;10501502;28;20105;-82
2022/01/19 05:20:32;;;;;;;53.28;23.55;;;;;;;2.71;86.38;102717.59;10508508;28;20127;-82
2022/01/19 05:25:34;;;;;;;52.28;24.17;;;;;;;2.88;85.97;102707.97;10530225;28;20564;-82
2022/01/19 05:30:47;;;;;;;50.88;24.52;;;;;;;2.80;85.48;102708.19;10476823;28;20041;-83
2022/01/19 05:35:50;;;;;;;48.67;23.55;;;;;;;2.78;85.66;102719.94;10470810;28;20052;-83
2022/01/19 05:41:11;;;;;;;52.53;24.25;;;;;;;2.93;85.40;102724.56;10435042;28;20557;-82
2022/01/19 05:46:15;;;;;;;63.17;25.52;;;;;;;3.01;85.36;102723.56;10455854;28;20102;-82
2022/01/19 05:51:17;;;;;;;50.00;22.52;;;;;;;2.84;85.77;102697.53;10475420;28;20041;-82
2022/01/19 05:56:19;;;;;;;53.67;23.75;;;;;;;2.91;85.73;102690.44;10475892;28;20066;-82
2022/01/19 06:01:36;;;;;;;46.80;21.58;;;;;;;2.94;86.06;102681.41;10475326;28;20131;-82
2022/01/19 06:06:39;;;;;;;52.78;23.17;;;;;;;2.90;86.25;102668.25;10490080;28;20054;-83
2022/01/19 06:11:51;;;;;;;47.45;20.95;;;;;;;2.96;85.71;102667.16;10550576;28;20375;-82
2022/01/19 06:16:56;;;;;;;46.80;22.23;;;;;;;3.01;85.35;102657.38;10499760;28;20051;-83
2022/01/19 06:21:58;;;;;;;46.67;20.55;;;;;;;2.94;85.91;102655.06;10475641;28;20132;-83
2022/01/19 06:27:00;;;;;;;44.50;20.15;;;;;;;2.92;86.18;102646.38;10475422;28;20109;-82
2022/01/19 06:32:02;;;;;;;44.60;19.35;;;;;;;2.92;85.70;102648.94;10474753;28;20041;-83
2022/01/19 06:37:04;;;;;;;43.35;20.85;;;;;;;3.03;85.81;102620.16;10502062;28;20048;-83
2022/01/19 06:42:19;;;;;;;33.20;15.73;;;;;;;2.93;85.96;102617.63;10504627;28;20055;-83
2022/01/19 06:47:21;;;;;;;48.55;19.50;;;;;;;2.83;85.49;102627.03;10480412;28;20048;-84
2022/01/19 06:52:38;;;;;;;50.22;19.42;;;;;;;2.93;86.11;102622.72;10480494;28;20052;-82
2022/01/19 06:57:40;;;;;;;40.38;19.65;;;;;;;2.82;85.63;102620.13;10481322;28;20519;-83
2022/01/19 07:03:03;;;;;;;48.00;18.77;;;;;;;2.87;85.87;102602.72;10483038;28;20044;-84
2022/01/19 07:08:18;;;;;;;38.47;18.80;;;;;;;2.80;86.17;102605.50;10521519;28;20051;-83
2022/01/19 07:13:21;;;;;;;45.08;19.77;;;;;;;2.75;86.09;102604.22;10518270;28;20071;-85
2022/01/19 07:18:23;;;;;;;48.95;20.10;;;;;;;2.87;85.84;102595.06;10483307;28;20505;-84
2022/01/19 07:23:27;;;;;;;42.28;17.55;;;;;;;2.77;85.65;102575.59;10492157;28;20036;-84
2022/01/19 07:28:29;;;;;;;39.50;17.50;;;;;;;2.77;85.59;102564.50;10491287;28;20476;-84
2022/01/19 07:33:31;;;;;;;42.20;17.65;;;;;;;2.76;86.08;102563.63;10517277;28;20070;-83
2022/01/19 07:38:32;;;;;;;43.85;19.15;;;;;;;2.67;85.88;102552.66;10534963;28;20138;-84
2022/01/19 07:43:34;;;;;;;43.00;17.40;;;;;;;2.71;85.79;102564.91;10502248;28;20040;-85
2022/01/19 07:49:00;;;;;;;30.08;15.52;;;;;;;2.60;85.83;102565.63;10496417;28;20411;-84
2022/01/19 07:54:18;;;;;;;41.45;17.95;;;;;;;2.78;85.82;102564.66;10474951;28;20429;-83
2022/01/19 07:59:31;;;;;;;43.80;17.00;;;;;;;2.83;85.22;102560.84;10490657;28;20045;-83
2022/01/19 08:04:36;;;;;;;31.10;14.75;;;;;;;2.67;85.29;102552.66;10467361;28;20047;-83
2022/01/19 08:09:38;;;;;;;42.25;18.25;;;;;;;2.99;85.28;102554.47;10512142;28;20044;-83
2022/01/19 08:14:41;;;;;;;43.67;18.40;;;;;;;2.87;85.35;102556.88;10498281;28;20140;-83
2022/01/19 08:19:43;;;;;;;41.28;17.48;;;;;;;2.79;84.56;102548.59;10484141;28;20087;-83
2022/01/19 08:24:45;;;;;;;40.95;18.20;;;;;;;3.01;84.81;102550.41;10475778;28;20047;-84
2022/01/19 08:29:47;;;;;;;45.00;19.33;;;;;;;2.86;84.80;102539.81;10470579;28;20466;-83
2022/01/19 08:34:59;;;;;;;45.28;17.70;;;;;;;2.77;85.43;102533.97;10497638;28;20041;-83
2022/01/19 08:40:03;;;;;;;42.72;19.23;;;;;;;2.73;85.77;102532.81;10489474;28;20487;-84
2022/01/19 08:45:10;;;;;;;43.50;19.50;;;;;;;2.90;85.08;102529.16;10534877;28;20044;-83
2022/01/19 08:50:14;;;;;;;42.35;18.92;;;;;;;2.84;85.00;102519.34;10518877;28;20040;-84
2022/01/19 08:55:34;;;;;;;40.25;19.20;;;;;;;2.89;85.00;102508.63;10519439;28;20047;-84
2022/01/19 09:00:36;;;;;;;45.17;19.85;;;;;;;2.81;85.20;102498.72;10518815;28;20044;-82
2022/01/19 09:05:38;;;;;;;44.22;20.70;;;;;;;2.83;85.02;102492.09;10493746;28;20047;-84
2022/01/19 09:10:41;;;;;;;40.10;18.85;;;;;;;2.89;84.49;102488.28;10536687;28;20113;-84
2022/01/19 09:15:42;;;;;;;38.47;19.25;;;;;;;2.82;84.86;102482.69;10518830;28;20052;-83
2022/01/19 09:20:44;;;;;;;42.15;20.30;;;;;;;2.93;84.46;102469.97;10518192;28;20125;-83
2022/01/19 09:25:45;;;;;;;40.83;18.45;;;;;;;2.99;84.47;102465.38;10535290;28;20048;-84
2022/01/19 09:30:49;;;;;;;36.00;18.60;;;;;;;2.85;85.10;102452.41;10518654;28;20466;-84
2022/01/19 09:41:02;;;;;;;42.63;19.88;;;;;;;3.27;83.74;102463.41;10476313;28;20080;-84
2022/01/19 09:46:04;;;;;;;44.92;20.25;;;;;;;3.20;83.93;102461.13;10476192;28;20050;-84
2022/01/19 09:51:06;;;;;;;43.72;20.60;;;;;;;3.27;84.03;102448.13;10475759;28;20041;-84
2022/01/19 09:56:07;;;;;;;43.70;19.67;;;;;;;3.25;84.32;102439.47;10510022;28;20079;-83
2022/01/19 10:01:09;;;;;;;38.25;18.58;;;;;;;3.10;84.44;102428.03;10476199;28;20080;-82
2022/01/19 10:06:14;;;;;;;42.25;20.30;;;;;;;3.26;83.81;102425.97;10477860;28;20063;-83
2022/01/19 10:22:09;;;;;;;42.70;19.77;;;;;;;3.41;83.38;102416.09;10540686;28;20043;-83
2022/01/19 10:27:19;;;;;;;43.70;20.55;;;;;;;3.31;83.43;102419.56;10525402;28;20083;-84
2022/01/19 10:32:23;;;;;;;45.65;19.90;;;;;;;3.45;83.38;102413.03;10525165;28;20086;-84
2022/01/19 10:37:27;;;;;;;48.13;20.30;;;;;;;3.39;83.76;102389.59;10522484;28;20044;-84
2022/01/19 10:42:33;;;;;;;41.63;20.10;;;;;;;3.48;83.44;102375.03;10490233;28;20050;-85
2022/01/19 10:47:59;;;;;;;44.35;19.67;;;;;;;3.60;83.23;102367.47;10482347;28;20117;-84
2022/01/19 10:53:02;;;;;;;41.47;18.90;;;;;;;3.61;83.49;102363.28;10482722;28;20068;-83
2022/01/19 10:58:11;;;;;;;48.83;20.63;;;;;;;3.69;83.54;102358.75;10481905;28;20090;-86
2022/01/19 11:03:17;;;;;;;45.63;19.85;;;;;;;3.76;82.73;102344.03;10481535;28;20053;-84
2022/01/19 11:08:20;;;;;;;38.80;18.90;;;;;;;3.62;83.52;102339.53;10543310;28;20044;-85
2022/01/19 11:13:34;;;;;;;40.83;17.80;;;;;;;3.54;84.05;102331.31;10523752;28;20079;-85
2022/01/19 11:18:39;;;;;;;40.42;19.08;;;;;;;3.69;83.67;102323.94;10539967;28;20116;-85
2022/01/19 11:23:52;;;;;;;41.88;19.55;;;;;;;3.76;83.71;102321.09;10522917;28;20087;-85
2022/01/19 11:28:53;;;;;;;42.70;18.85;;;;;;;3.84;83.50;102320.78;10522721;28;20048;-85
2022/01/19 11:33:58;;;;;;;43.00;18.75;;;;;;;3.88;83.47;102294.78;10519944;28;20437;-84
2022/01/19 11:39:08;;;;;;;43.88;19.73;;;;;;;3.70;84.40;102287.50;10522000;28;20548;-84
2022/01/19 11:44:19;;;;;;;44.33;18.63;;;;;;;3.62;84.62;102278.38;10555770;28;20044;-85
2022/01/19 11:49:54;;;;;;;43.83;18.85;;;;;;;3.80;84.33;102258.47;10538562;28;20133;-84
2022/01/19 11:55:15;;;;;;;41.90;19.02;;;;;;;3.83;84.49;102245.09;10521531;28;20423;-84
2022/01/19 12:00:23;;;;;;;39.50;19.20;;;;;;;3.86;84.94;102240.22;10521993;28;20048;-84
2022/01/19 12:05:26;;;;;;;44.33;18.73;;;;;;;3.72;85.81;102227.34;10517122;28;20035;-85
2022/01/19 12:10:30;;;;;;;35.72;17.13;;;;;;;3.62;85.74;102207.00;10520347;28;20048;-85
2022/01/19 12:16:01;;;;;;;36.72;17.50;;;;;;;3.74;85.99;102197.75;10555067;28;20058;-84
2022/01/19 12:21:03;;;;;;;33.55;17.65;;;;;;;3.69;86.85;102188.84;10520214;28;20056;-84
2022/01/19 12:26:10;;;;;;;41.47;19.63;;;;;;;3.79;85.74;102168.38;10537181;28;20048;-84
2022/01/19 12:31:34;;;;;;;39.80;18.13;;;;;;;3.68;85.94;102159.06;10520120;28;20082;-84
2022/01/19 12:36:44;;;;;;;44.72;19.85;;;;;;;3.93;85.50;102168.50;10518015;28;20085;-83
2022/01/19 12:42:05;;;;;;;42.83;19.38;;;;;;;3.96;85.63;102158.53;10535893;28;20040;-83
2022/01/19 12:47:28;;;;;;;45.93;19.93;;;;;;;4.10;84.87;102145.13;10553087;28;20109;-84
2022/01/19 12:52:32;;;;;;;46.45;20.33;;;;;;;4.04;85.51;102131.03;10536452;28;20145;-85
2022/01/19 12:57:37;;;;;;;39.95;19.30;;;;;;;4.04;85.80;102114.09;10535505;28;20048;-84
2022/01/19 13:02:39;;;;;;;41.95;19.10;;;;;;;4.08;85.59;102108.41;10513076;28;20041;-85
2022/01/19 13:07:53;;;;;;;47.95;20.48;;;;;;;4.01;85.15;102090.03;10517618;28;20147;-83
2022/01/19 13:13:07;;;;;;;48.50;20.55;;;;;;;4.13;85.84;102081.56;10535742;28;20097;-84
2022/01/19 13:18:12;;;;;;;45.35;21.50;;;;;;;4.15;85.62;102079.16;10518473;28;20518;-84
2022/01/19 13:23:13;;;;;;;47.67;20.05;;;;;;;4.25;85.00;102070.47;10518317;28;20040;-85
2022/01/19 13:28:24;;;;;;;49.33;21.20;;;;;;;4.28;84.39;102061.38;10534884;28;20189;-85
2022/01/19 13:33:26;;;;;;;41.97;20.30;;;;;;;4.17;84.86;102043.53;10534941;28;20040;-84
2022/01/19 13:38:28;;;;;;;43.25;20.98;;;;;;;4.37;84.05;102039.84;10531944;28;20406;-84
2022/01/19 13:43:36;;;;;;;44.60;20.13;;;;;;;4.23;85.02;102021.00;10517816;28;20123;-85
2022/01/19 13:48:39;;;;;;;51.17;20.88;;;;;;;4.41;84.23;102012.09;10517631;28;20498;-84
2022/01/19 13:53:51;;;;;;;51.85;22.35;;;;;;;4.30;83.97;102007.88;10518459;28;20055;-84
2022/01/19 13:58:58;;;;;;;55.63;24.42;;;;;;;4.16;85.01;102006.03;10525994;28;20074;-85
2022/01/19 14:04:05;;;;;;;48.60;20.40;;;;;;;4.21;84.70;101999.59;10508586;28;20049;-84
2022/01/19 14:09:36;;;;;;;47.22;21.80;;;;;;;4.47;84.05;102005.63;10535615;28;20075;-84
2022/01/19 14:14:42;;;;;;;48.35;23.77;;;;;;;4.45;83.72;101988.53;10559845;28;20036;-85
2022/01/19 14:19:45;;;;;;;51.85;22.50;;;;;;;4.36;83.50;101971.72;10542175;28;20105;-85
2022/01/19 14:24:55;;;;;;;45.80;21.50;;;;;;;4.32;84.19;101970.63;10543062;28;20050;-84
2022/01/19 14:30:23;;;;;;;49.95;22.25;;;;;;;4.31;83.70;101961.19;10525054;28;20063;-83
2022/01/19 14:36:00;;;;;;;50.00;23.92;;;;;;;4.35;84.79;101947.88;10522232;28;20487;-85
2022/01/19 14:41:08;;;;;;;46.20;22.60;;;;;;;4.23;85.38;101935.19;10495361;28;20447;-85
2022/01/19 14:46:14;;;;;;;55.45;24.60;;;;;;;4.32;84.95;101940.00;10499392;28;20403;-84
2022/01/19 14:51:26;;;;;;;51.75;23.98;;;;;;;4.47;83.39;101939.28;10498778;28;20484;-85
2022/01/19 14:56:35;;;;;;;53.17;23.52;;;;;;;4.51;83.68;101944.69;10483452;28;20119;-84
2022/01/19 15:01:39;;;;;;;51.53;24.05;;;;;;;4.45;83.45;101952.81;10515026;28;20488;-85
2022/01/19 15:06:41;;;;;;;52.45;22.70;;;;;;;4.51;83.45;101946.34;10529287;28;20040;-83
2022/01/19 15:11:43;;;;;;;51.75;23.17;;;;;;;4.38;83.53;101944.66;10522954;28;20059;-84
2022/01/19 15:16:47;;;;;;;55.13;24.48;;;;;;;4.41;83.62;101945.75;10523278;28;20048;-84
2022/01/19 15:21:49;;;;;;;49.28;23.17;;;;;;;4.43;84.03;101944.16;10539250;28;20055;-85
2022/01/19 15:26:50;;;;;;;52.28;22.08;;;;;;;4.25;85.59;101945.47;10539764;28;20080;-85
2022/01/19 15:31:53;;;;;;;50.45;23.13;;;;;;;4.23;86.06;101939.38;10522637;28;20437;-83
2022/01/19 15:36:55;;;;;;;54.17;23.85;;;;;;;4.29;86.19;101942.34;10511708;28;20046;-84
2022/01/19 15:41:59;;;;;;;56.50;24.60;;;;;;;4.34;86.49;101938.44;10539988;28;20085;-84
2022/01/19 15:47:00;;;;;;;53.90;24.77;;;;;;;4.35;86.42;101939.31;10522079;28;20062;-83
2022/01/19 15:52:03;;;;;;;51.50;25.25;;;;;;;4.37;87.00;101938.63;10555253;28;20588;-85
2022/01/19 15:57:05;;;;;;;65.30;26.17;;;;;;;4.35;87.44;101934.22;10521545;28;20051;-84
2022/01/19 16:02:07;;;;;;;55.38;23.63;;;;;;;4.36;87.24;101938.53;10519203;28;20047;-83
2022/01/19 16:07:10;;;;;;;51.85;24.48;;;;;;;4.40;87.67;101927.75;10497858;28;20134;-83
2022/01/19 16:12:12;;;;;;;60.35;26.08;;;;;;;4.41;87.57;101930.44;10537920;28;20046;-84
2022/01/19 16:17:14;;;;;;;59.58;27.05;;;;;;;4.33;87.60;101929.03;10536554;28;20059;-82
2022/01/19 16:26:06;;;;;;;60.35;25.73;;;;;;;4.37;87.74;101933.53;10520028;28;20048;-83
2022/01/19 16:27:37;;;;;;;53.70;24.15;;;;;;;4.34;87.76;101935.91;10520190;28;20376;-84
2022/01/19 16:32:39;;;;;;;67.18;28.33;;;;;;;4.40;87.57;101941.41;10520175;28;20090;-83
2022/01/19 16:37:41;;;;;;;56.00;27.30;;;;;;;4.38;87.98;101935.31;10517467;28;20052;-84
2022/01/19 16:42:44;;;;;;;58.55;26.30;;;;;;;4.39;87.72;101936.22;10536231;28;20101;-84
2022/01/19 16:47:53;;;;;;;58.65;26.10;;;;;;;4.44;88.19;101930.63;10508479;28;20040;-83
2022/01/19 16:52:55;;;;;;;64.95;28.90;;;;;;;4.44;88.51;101935.72;10469737;28;20086;-83
2022/01/19 16:57:57;;;;;;;62.17;28.67;;;;;;;4.54;88.17;101931.25;10469232;28;20139;-84
2022/01/19 17:02:58;;;;;;;58.97;26.45;;;;;;;4.44;89.26;101930.63;10479596;28;20043;-85
2022/01/19 17:08:03;;;;;;;60.97;27.83;;;;;;;4.57;88.33;101949.31;10472975;28;20499;-85
2022/01/19 17:18:34;;;;;;;61.42;29.90;;;;;;;4.68;89.45;101950.91;10488749;28;20044;-84
2022/01/19 17:23:35;;;;;;;53.63;26.05;;;;;;;4.73;88.81;101949.53;10479179;28;20036;-83
2022/01/19 17:28:37;;;;;;;57.03;25.65;;;;;;;4.73;89.00;101949.53;10494135;28;20049;-84
2022/01/19 17:33:39;;;;;;;55.65;26.77;;;;;;;4.85;88.44;101958.81;10483830;28;20075;-83
2022/01/19 17:38:42;;;;;;;62.88;27.00;;;;;;;4.93;89.52;101957.66;10491621;28;20428;-84
2022/01/19 17:43:45;;;;;;;54.28;26.17;;;;;;;4.90;88.82;101947.22;10479339;28;20040;-83
2022/01/19 17:48:54;;;;;;;44.58;23.20;;;;;;;4.98;89.30;101955.41;10479559;28;20045;-83
2022/01/19 17:53:56;;;;;;;47.88;23.80;;;;;;;5.01;89.75;101951.38;10486158;28;20503;-84
2022/01/19 17:58:59;;;;;;;47.40;23.98;;;;;;;5.08;89.39;101948.44;10496020;28;20103;-83
2022/01/19 18:04:05;;;;;;;49.80;22.52;;;;;;;5.04;89.38;101931.13;10501291;28;20045;-82
2022/01/19 18:09:07;;;;;;;45.58;23.67;;;;;;;5.23;88.93;101934.91;10485570;28;20124;-83
2022/01/19 18:14:09;;;;;;;46.75;23.17;;;;;;;5.27;88.75;101944.50;10489892;28;20138;-83
2022/01/19 18:19:32;;;;;;;55.03;24.08;;;;;;;5.26;89.26;101952.97;10519428;28;20068;-83
2022/01/19 18:24:35;;;;;;;47.55;24.27;;;;;;;5.32;88.99;101962.69;10464270;28;20045;-83
2022/01/19 18:29:39;;;;;;;50.22;24.45;;;;;;;5.47;89.07;101970.47;10462163;28;20044;-83
2022/01/19 18:34:41;;;;;;;50.15;24.20;;;;;;;5.40;89.04;101977.72;10475344;28;20154;-83
2022/01/19 18:39:45;;;;;;;47.83;23.98;;;;;;;5.58;88.78;101991.63;10513978;28;20054;-83
2022/01/19 18:44:49;;;;;;;47.97;22.92;;;;;;;5.58;89.13;102000.16;10512076;28;20387;-82
2022/01/19 18:49:50;;;;;;;44.15;21.45;;;;;;;5.59;89.52;102009.59;10518637;28;20079;-83
2022/01/19 18:54:53;;;;;;;47.05;20.70;;;;;;;5.72;89.39;102007.03;10478703;28;20259;-83
2022/01/19 18:59:55;;;;;;;38.88;18.23;;;;;;;5.70;89.11;102003.47;10494133;28;20052;-82
2022/01/19 19:04:57;;;;;;;35.47;15.38;;;;;;;5.86;88.80;102000.25;10481679;28;20036;-83
2022/01/19 19:10:12;;;;;;;35.17;14.60;;;;;;;5.90;88.02;102002.97;10535921;28;20681;-84
2022/01/19 19:15:19;;;;;;;33.88;12.52;;;;;;;5.89;88.23;102004.66;10494642;28;20106;-84
2022/01/19 19:20:21;;;;;;;33.33;12.30;;;;;;;5.88;88.63;102013.09;10471461;28;20049;-83
2022/01/19 19:25:24;;;;;;;29.70;9.60;;;;;;;5.89;87.84;102017.44;10481625;28;20440;-83
2022/01/19 19:30:27;;;;;;;32.92;8.00;;;;;;;5.96;87.85;102023.81;10497374;28;20052;-84
2022/01/19 19:35:29;;;;;;;29.98;6.95;;;;;;;5.94;88.38;102018.59;10485527;28;20621;-84
2022/01/19 19:40:31;;;;;;;28.58;6.75;;;;;;;5.97;87.25;102039.28;10474878;28;20044;-82
2022/01/19 19:45:36;;;;;;;29.58;5.43;;;;;;;5.98;87.44;102048.72;10490463;28;20400;-84
2022/01/19 19:50:38;;;;;;;34.80;5.53;;;;;;;5.99;87.14;102053.09;10492531;28;20055;-83
2022/01/19 19:55:40;;;;;;;36.03;6.82;;;;;;;6.00;86.44;102054.84;10482204;28;20032;-83
2022/01/19 20:00:42;;;;;;;35.20;5.22;;;;;;;5.95;86.11;102066.44;10482203;28;20052;-84
2022/01/19 20:05:43;;;;;;;41.05;6.00;;;;;;;5.83;87.09;102070.78;10494115;28;20159;-83
2022/01/19 20:10:45;;;;;;;41.83;5.05;;;;;;;5.67;87.00;102081.66;10480815;28;20394;-83
2022/01/19 20:15:49;;;;;;;34.70;3.80;;;;;;;5.52;86.66;102089.22;10497208;28;20053;-84
2022/01/19 20:20:51;;;;;;;48.85;3.80;;;;;;;5.49;85.89;102099.25;10522606;28;20048;-82
2022/01/19 20:25:53;;;;;;;37.72;3.95;;;;;;;5.43;86.14;102111.63;10498396;28;20539;-84
2022/01/19 20:30:55;;;;;;;30.25;4.30;;;;;;;5.30;85.64;102118.47;10510769;28;20052;-84
2022/01/19 20:35:57;;;;;;;39.22;3.63;;;;;;;5.48;85.75;102138.38;10477239;28;20044;-84
2022/01/19 20:41:00;;;;;;;53.95;4.85;;;;;;;5.32;85.66;102155.25;10488777;28;20048;-85
2022/01/19 20:46:05;;;;;;;44.22;3.67;;;;;;;5.38;85.49;102152.22;10514991;28;20071;-85
2022/01/19 20:51:07;;;;;;;36.40;3.95;;;;;;;5.35;82.54;102142.66;10471161;28;20055;-84
2022/01/19 20:56:10;;;;;;;31.63;2.95;;;;;;;5.35;82.20;102139.25;10456039;28;20107;-85
2022/01/19 21:01:13;;;;;;;27.10;3.25;;;;;;;5.11;83.20;102141.91;10505318;28;20068;-85
2022/01/19 21:06:16;;;;;;;25.08;2.58;;;;;;;4.96;82.15;102172.38;10489184;28;20045;-86
2022/01/19 21:11:17;;;;;;;30.05;2.42;;;;;;;4.76;82.45;102174.44;10480980;28;20483;-85
2022/01/19 21:16:19;;;;;;;18.90;1.88;;;;;;;4.75;82.74;102182.00;10482151;28;20036;-86
2022/01/19 21:21:21;;;;;;;13.40;1.58;;;;;;;4.59;82.69;102188.56;10486647;28;20072;-86
2022/01/19 21:26:23;;;;;;;13.15;1.85;;;;;;;4.32;84.11;102190.03;10488427;28;20122;-87
2022/01/19 21:31:25;;;;;;;16.65;2.42;;;;;;;4.30;83.72;102191.59;10503272;28;20052;-86
2022/01/19 21:36:29;;;;;;;18.38;1.98;;;;;;;4.12;83.75;102207.34;10490968;28;20040;-87
2022/01/19 21:41:31;;;;;;;18.90;2.25;;;;;;;3.93;85.01;102220.41;10492262;28;20044;-87
2022/01/19 21:46:33;;;;;;;22.88;2.50;;;;;;;3.98;84.58;102208.00;10477308;28;20071;-87
2022/01/19 21:51:38;;;;;;;26.23;3.25;;;;;;;3.87;84.89;102203.75;10468161;28;20127;-87
2022/01/19 21:56:40;;;;;;;19.10;2.88;;;;;;;3.78;85.19;102199.75;10490794;28;20041;-87
2022/01/19 22:01:42;;;;;;;24.05;3.05;;;;;;;3.73;84.83;102200.16;10512151;28;20044;-87
2022/01/19 22:06:44;;;;;;;35.92;4.05;;;;;;;3.60;85.13;102198.38;10501170;28;20488;-87
2022/01/19 22:11:52;;;;;;;27.27;3.25;;;;;;;3.60;85.32;102208.59;10508242;28;20064;-86
2022/01/19 22:16:55;;;;;;;28.50;3.25;;;;;;;3.39;84.83;102203.59;10499721;28;20037;-87
2022/01/19 22:21:58;;;;;;;18.90;2.20;;;;;;;3.28;84.75;102205.34;10487570;28;20518;-87
2022/01/19 22:27:01;;;;;;;27.17;3.15;;;;;;;3.14;84.95;102211.94;10483290;28;20044;-87
2022/01/19 22:32:03;;;;;;;17.70;2.33;;;;;;;3.02;85.31;102210.97;10486174;28;20106;-86
2022/01/19 22:37:05;;;;;;;17.58;2.72;;;;;;;2.86;85.25;102219.09;10501441;28;20129;-87
2022/01/19 22:42:10;;;;;;;12.38;2.42;;;;;;;2.78;85.99;102226.13;10489433;28;20045;-86
2022/01/19 22:47:11;;;;;;;29.33;2.83;;;;;;;2.77;86.09;102234.53;10514030;28;20045;-85
2022/01/19 22:52:18;;;;;;;21.60;2.40;;;;;;;2.90;86.78;102235.50;10486394;28;20487;-85
2022/01/19 22:57:19;;;;;;;24.58;3.05;;;;;;;3.01;86.75;102239.78;10491704;28;20488;-86
2022/01/19 23:02:21;;;;;;;34.25;3.55;;;;;;;3.04;86.44;102241.66;10524590;28;20044;-86
2022/01/19 23:13:39;;;;;;;20.48;3.80;;;;;;;2.96;87.15;102247.06;10502278;28;20028;-85
2022/01/19 23:18:40;;;;;;;40.60;3.72;;;;;;;2.85;86.80;102253.84;10480116;28;20043;-86
2022/01/19 23:24:01;;;;;;;34.10;3.00;;;;;;;3.02;86.78;102251.72;10531187;28;20032;-85
2022/01/19 23:29:04;;;;;;;24.35;2.80;;;;;;;3.12;86.78;102238.06;10504758;28;20075;-84
2022/01/19 23:34:09;;;;;;;30.73;3.80;;;;;;;3.29;86.30;102252.09;10515622;28;20467;-86
2022/01/19 23:49:59;;;;;;;23.57;3.40;;;;;;;3.22;86.34;102249.84;10526404;28;20109;-86
2022/01/19 23:55:01;;;;;;;32.45;5.15;;;;;;;3.16;86.34;102235.84;10522277;28;20047;-86
